sensor_id;sensor_type;location;lat;lon;timestamp;P1;durP1;ratioP1;P2;durP2;ratioP2
76059;SDS011;64759;52.220;5.170;2023-04-21T00:00:58;20.60;;;14.10;;
76059;SDS011;64759;52.220;5.170;2023-04-21T00:03:24;20.25;;;14.30;;
76059;SDS011;64759;52.220;5.170;2023-04-21T00:05:51;18.17;;;13.80;;
76059;SDS011;64759;52.220;5.170;2023-04-21T00:08:17;20.98;;;15.65;;
76059;SDS011;64759;52.220;5.170;2023-04-21T00:10:43;21.02;;;15.00;;
76059;SDS011;64759;52.220;5.170;2023-04-21T00:13:10;18.92;;;13.98;;
76059;SDS011;64759;52.220;5.170;2023-04-21T00:15:36;24.08;;;16.50;;
76059;SDS011;64759;52.220;5.170;2023-04-21T00:18:02;22.23;;;16.00;;
76059;SDS011;64759;52.220;5.170;2023-04-21T00:20:27;23.05;;;15.77;;
76059;SDS011;64759;52.220;5.170;2023-04-21T00:22:55;31.90;;;17.65;;
76059;SDS011;64759;52.220;5.170;2023-04-21T00:25:21;23.20;;;17.85;;
76059;SDS011;64759;52.220;5.170;2023-04-21T00:27:47;22.55;;;16.05;;
76059;SDS011;64759;52.220;5.170;2023-04-21T00:30:13;24.92;;;17.25;;
76059;SDS011;64759;52.220;5.170;2023-04-21T00:32:38;23.17;;;17.52;;
76059;SDS011;64759;52.220;5.170;2023-04-21T00:35:05;28.95;;;18.55;;
76059;SDS011;64759;52.220;5.170;2023-04-21T00:37:31;27.98;;;18.83;;
76059;SDS011;64759;52.220;5.170;2023-04-21T00:39:57;26.52;;;18.60;;
76059;SDS011;64759;52.220;5.170;2023-04-21T00:42:24;28.90;;;19.13;;
76059;SDS011;64759;52.220;5.170;2023-04-21T00:44:53;24.65;;;18.27;;
76059;SDS011;64759;52.220;5.170;2023-04-21T00:47:18;31.35;;;20.58;;
76059;SDS011;64759;52.220;5.170;2023-04-21T00:49:44;30.30;;;19.98;;
76059;SDS011;64759;52.220;5.170;2023-04-21T00:52:11;29.42;;;20.63;;
76059;SDS011;64759;52.220;5.170;2023-04-21T00:54:38;28.70;;;20.13;;
76059;SDS011;64759;52.220;5.170;2023-04-21T00:57:04;23.55;;;18.70;;
76059;SDS011;64759;52.220;5.170;2023-04-21T00:59:31;30.33;;;20.83;;
76059;SDS011;64759;52.220;5.170;2023-04-21T01:01:59;27.13;;;20.17;;
76059;SDS011;64759;52.220;5.170;2023-04-21T01:04:25;26.02;;;20.92;;
76059;SDS011;64759;52.220;5.170;2023-04-21T01:06:51;32.83;;;22.10;;
76059;SDS011;64759;52.220;5.170;2023-04-21T01:09:18;30.85;;;22.88;;
76059;SDS011;64759;52.220;5.170;2023-04-21T01:12:00;32.38;;;23.77;;
76059;SDS011;64759;52.220;5.170;2023-04-21T01:14:27;35.13;;;23.58;;
76059;SDS011;64759;52.220;5.170;2023-04-21T01:16:53;33.05;;;23.17;;
76059;SDS011;64759;52.220;5.170;2023-04-21T01:19:19;30.20;;;23.45;;
76059;SDS011;64759;52.220;5.170;2023-04-21T01:21:44;31.15;;;21.90;;
76059;SDS011;64759;52.220;5.170;2023-04-21T01:24:10;36.72;;;24.52;;
76059;SDS011;64759;52.220;5.170;2023-04-21T01:26:37;31.27;;;23.20;;
76059;SDS011;64759;52.220;5.170;2023-04-21T01:29:03;33.88;;;23.88;;
76059;SDS011;64759;52.220;5.170;2023-04-21T01:31:32;33.13;;;24.20;;
76059;SDS011;64759;52.220;5.170;2023-04-21T01:34:01;32.15;;;24.42;;
76059;SDS011;64759;52.220;5.170;2023-04-21T01:36:28;38.75;;;24.60;;
76059;SDS011;64759;52.220;5.170;2023-04-21T01:38:53;35.53;;;24.17;;
76059;SDS011;64759;52.220;5.170;2023-04-21T01:41:20;33.03;;;25.65;;
76059;SDS011;64759;52.220;5.170;2023-04-21T01:43:46;37.88;;;25.83;;
76059;SDS011;64759;52.220;5.170;2023-04-21T01:46:12;36.03;;;25.77;;
76059;SDS011;64759;52.220;5.170;2023-04-21T01:48:37;37.83;;;25.77;;
76059;SDS011;64759;52.220;5.170;2023-04-21T01:51:04;33.83;;;24.45;;
76059;SDS011;64759;52.220;5.170;2023-04-21T01:53:30;36.35;;;24.08;;
76059;SDS011;64759;52.220;5.170;2023-04-21T01:55:55;37.55;;;26.30;;
76059;SDS011;64759;52.220;5.170;2023-04-21T01:58:22;37.47;;;27.17;;
76059;SDS011;64759;52.220;5.170;2023-04-21T02:00:47;38.53;;;25.60;;
76059;SDS011;64759;52.220;5.170;2023-04-21T02:03:13;38.55;;;26.48;;
76059;SDS011;64759;52.220;5.170;2023-04-21T02:05:39;33.88;;;25.48;;
76059;SDS011;64759;52.220;5.170;2023-04-21T02:08:05;38.90;;;27.45;;
76059;SDS011;64759;52.220;5.170;2023-04-21T02:10:31;38.67;;;25.63;;
76059;SDS011;64759;52.220;5.170;2023-04-21T02:12:56;40.72;;;28.08;;
76059;SDS011;64759;52.220;5.170;2023-04-21T02:15:22;39.58;;;28.30;;
76059;SDS011;64759;52.220;5.170;2023-04-21T02:17:47;37.35;;;25.58;;
76059;SDS011;64759;52.220;5.170;2023-04-21T02:20:12;39.42;;;27.58;;
76059;SDS011;64759;52.220;5.170;2023-04-21T02:22:38;36.00;;;26.63;;
76059;SDS011;64759;52.220;5.170;2023-04-21T02:25:04;36.25;;;27.95;;
76059;SDS011;64759;52.220;5.170;2023-04-21T02:27:30;38.80;;;27.83;;
76059;SDS011;64759;52.220;5.170;2023-04-21T02:29:58;39.63;;;28.33;;
76059;SDS011;64759;52.220;5.170;2023-04-21T02:32:23;40.30;;;29.13;;
76059;SDS011;64759;52.220;5.170;2023-04-21T02:34:49;40.97;;;29.45;;
76059;SDS011;64759;52.220;5.170;2023-04-21T02:37:14;48.05;;;30.48;;
76059;SDS011;64759;52.220;5.170;2023-04-21T02:39:42;47.38;;;31.27;;
76059;SDS011;64759;52.220;5.170;2023-04-21T02:42:07;42.88;;;29.55;;
76059;SDS011;64759;52.220;5.170;2023-04-21T02:44:33;41.95;;;29.58;;
76059;SDS011;64759;52.220;5.170;2023-04-21T02:47:03;43.03;;;30.67;;
76059;SDS011;64759;52.220;5.170;2023-04-21T02:49:29;41.42;;;30.20;;
76059;SDS011;64759;52.220;5.170;2023-04-21T02:51:56;41.92;;;30.33;;
76059;SDS011;64759;52.220;5.170;2023-04-21T02:54:22;44.30;;;31.42;;
76059;SDS011;64759;52.220;5.170;2023-04-21T02:56:48;49.38;;;33.40;;
76059;SDS011;64759;52.220;5.170;2023-04-21T02:59:14;44.80;;;30.60;;
76059;SDS011;64759;52.220;5.170;2023-04-21T03:01:40;44.60;;;29.73;;
76059;SDS011;64759;52.220;5.170;2023-04-21T03:04:06;47.40;;;31.10;;
76059;SDS011;64759;52.220;5.170;2023-04-21T03:06:32;45.97;;;31.58;;
76059;SDS011;64759;52.220;5.170;2023-04-21T03:08:58;44.53;;;30.55;;
76059;SDS011;64759;52.220;5.170;2023-04-21T03:11:25;52.33;;;33.25;;
76059;SDS011;64759;52.220;5.170;2023-04-21T03:13:51;47.95;;;31.52;;
76059;SDS011;64759;52.220;5.170;2023-04-21T03:16:17;49.53;;;31.83;;
76059;SDS011;64759;52.220;5.170;2023-04-21T03:18:44;44.53;;;30.67;;
76059;SDS011;64759;52.220;5.170;2023-04-21T03:21:10;46.88;;;31.38;;
76059;SDS011;64759;52.220;5.170;2023-04-21T03:23:36;44.25;;;29.67;;
76059;SDS011;64759;52.220;5.170;2023-04-21T03:26:05;47.80;;;31.05;;
76059;SDS011;64759;52.220;5.170;2023-04-21T03:28:31;46.30;;;30.90;;
76059;SDS011;64759;52.220;5.170;2023-04-21T03:30:56;48.90;;;31.85;;
76059;SDS011;64759;52.220;5.170;2023-04-21T03:33:22;50.35;;;32.50;;
76059;SDS011;64759;52.220;5.170;2023-04-21T03:35:48;47.33;;;31.23;;
76059;SDS011;64759;52.220;5.170;2023-04-21T03:38:15;46.50;;;30.83;;
76059;SDS011;64759;52.220;5.170;2023-04-21T03:40:40;46.25;;;31.88;;
76059;SDS011;64759;52.220;5.170;2023-04-21T03:43:06;49.13;;;33.40;;
76059;SDS011;64759;52.220;5.170;2023-04-21T03:45:33;46.95;;;32.13;;
76059;SDS011;64759;52.220;5.170;2023-04-21T03:47:59;54.70;;;34.13;;
76059;SDS011;64759;52.220;5.170;2023-04-21T03:50:25;44.85;;;31.27;;
76059;SDS011;64759;52.220;5.170;2023-04-21T03:52:50;48.10;;;31.65;;
76059;SDS011;64759;52.220;5.170;2023-04-21T03:55:16;44.67;;;31.00;;
76059;SDS011;64759;52.220;5.170;2023-04-21T03:57:41;44.63;;;30.67;;
76059;SDS011;64759;52.220;5.170;2023-04-21T04:00:08;45.35;;;31.83;;
76059;SDS011;64759;52.220;5.170;2023-04-21T04:02:37;43.17;;;30.02;;
76059;SDS011;64759;52.220;5.170;2023-04-21T04:05:03;43.58;;;30.50;;
76059;SDS011;64759;52.220;5.170;2023-04-21T04:07:32;34.95;;;26.38;;
76059;SDS011;64759;52.220;5.170;2023-04-21T04:09:59;42.85;;;30.58;;
76059;SDS011;64759;52.220;5.170;2023-04-21T04:12:24;37.78;;;26.27;;
76059;SDS011;64759;52.220;5.170;2023-04-21T04:14:50;37.08;;;26.52;;
76059;SDS011;64759;52.220;5.170;2023-04-21T04:17:15;34.85;;;26.23;;
76059;SDS011;64759;52.220;5.170;2023-04-21T04:19:41;33.90;;;25.58;;
76059;SDS011;64759;52.220;5.170;2023-04-21T04:22:06;34.13;;;24.77;;
76059;SDS011;64759;52.220;5.170;2023-04-21T04:24:32;33.65;;;24.65;;
76059;SDS011;64759;52.220;5.170;2023-04-21T04:26:58;35.78;;;24.50;;
76059;SDS011;64759;52.220;5.170;2023-04-21T04:29:26;32.53;;;24.30;;
76059;SDS011;64759;52.220;5.170;2023-04-21T04:31:51;31.88;;;24.00;;
76059;SDS011;64759;52.220;5.170;2023-04-21T04:34:17;31.42;;;23.55;;
76059;SDS011;64759;52.220;5.170;2023-04-21T04:36:43;34.67;;;23.88;;
76059;SDS011;64759;52.220;5.170;2023-04-21T04:39:09;29.73;;;23.15;;
76059;SDS011;64759;52.220;5.170;2023-04-21T04:41:34;32.15;;;24.73;;
76059;SDS011;64759;52.220;5.170;2023-04-21T04:44:00;35.17;;;25.20;;
76059;SDS011;64759;52.220;5.170;2023-04-21T04:46:29;31.73;;;23.95;;
76059;SDS011;64759;52.220;5.170;2023-04-21T04:48:55;32.30;;;23.60;;
76059;SDS011;64759;52.220;5.170;2023-04-21T04:51:20;32.75;;;25.35;;
76059;SDS011;64759;52.220;5.170;2023-04-21T04:53:47;34.97;;;24.95;;
76059;SDS011;64759;52.220;5.170;2023-04-21T04:56:13;37.50;;;27.52;;
76059;SDS011;64759;52.220;5.170;2023-04-21T04:58:38;36.95;;;27.30;;
76059;SDS011;64759;52.220;5.170;2023-04-21T05:01:16;37.05;;;26.80;;
76059;SDS011;64759;52.220;5.170;2023-04-21T05:03:42;36.60;;;27.15;;
76059;SDS011;64759;52.220;5.170;2023-04-21T05:06:08;36.28;;;26.35;;
76059;SDS011;64759;52.220;5.170;2023-04-21T05:08:34;34.50;;;26.92;;
76059;SDS011;64759;52.220;5.170;2023-04-21T05:11:00;33.95;;;26.05;;
76059;SDS011;64759;52.220;5.170;2023-04-21T05:13:25;36.33;;;26.45;;
76059;SDS011;64759;52.220;5.170;2023-04-21T05:15:57;38.13;;;28.75;;
76059;SDS011;64759;52.220;5.170;2023-04-21T05:18:23;40.38;;;27.50;;
76059;SDS011;64759;52.220;5.170;2023-04-21T05:20:48;35.95;;;27.30;;
76059;SDS011;64759;52.220;5.170;2023-04-21T05:23:14;35.75;;;27.52;;
76059;SDS011;64759;52.220;5.170;2023-04-21T05:25:39;39.20;;;29.73;;
76059;SDS011;64759;52.220;5.170;2023-04-21T05:28:05;41.83;;;30.15;;
76059;SDS011;64759;52.220;5.170;2023-04-21T05:30:30;38.33;;;29.20;;
76059;SDS011;64759;52.220;5.170;2023-04-21T05:32:55;38.53;;;28.45;;
76059;SDS011;64759;52.220;5.170;2023-04-21T05:35:21;37.75;;;28.13;;
76059;SDS011;64759;52.220;5.170;2023-04-21T05:37:46;36.83;;;28.25;;
76059;SDS011;64759;52.220;5.170;2023-04-21T05:40:11;36.17;;;28.08;;
76059;SDS011;64759;52.220;5.170;2023-04-21T05:42:37;35.53;;;28.30;;
76059;SDS011;64759;52.220;5.170;2023-04-21T05:45:02;36.70;;;27.27;;
76059;SDS011;64759;52.220;5.170;2023-04-21T05:47:28;36.97;;;29.17;;
76059;SDS011;64759;52.220;5.170;2023-04-21T05:49:54;38.60;;;29.35;;
76059;SDS011;64759;52.220;5.170;2023-04-21T05:52:19;37.08;;;27.95;;
76059;SDS011;64759;52.220;5.170;2023-04-21T05:54:48;34.90;;;28.58;;
76059;SDS011;64759;52.220;5.170;2023-04-21T05:57:13;35.80;;;28.45;;
76059;SDS011;64759;52.220;5.170;2023-04-21T05:59:41;41.72;;;30.08;;
76059;SDS011;64759;52.220;5.170;2023-04-21T06:02:06;38.60;;;29.90;;
76059;SDS011;64759;52.220;5.170;2023-04-21T06:04:31;37.15;;;28.40;;
76059;SDS011;64759;52.220;5.170;2023-04-21T06:06:57;39.33;;;29.52;;
76059;SDS011;64759;52.220;5.170;2023-04-21T06:09:22;39.33;;;30.63;;
76059;SDS011;64759;52.220;5.170;2023-04-21T06:11:48;37.45;;;30.33;;
76059;SDS011;64759;52.220;5.170;2023-04-21T06:14:14;37.50;;;30.25;;
76059;SDS011;64759;52.220;5.170;2023-04-21T06:16:40;40.45;;;29.27;;
76059;SDS011;64759;52.220;5.170;2023-04-21T06:19:05;50.30;;;32.22;;
76059;SDS011;64759;52.220;5.170;2023-04-21T06:21:31;46.35;;;32.38;;
76059;SDS011;64759;52.220;5.170;2023-04-21T06:23:56;43.00;;;31.33;;
76059;SDS011;64759;52.220;5.170;2023-04-21T06:26:22;46.00;;;31.85;;
76059;SDS011;64759;52.220;5.170;2023-04-21T06:28:47;47.17;;;33.80;;
76059;SDS011;64759;52.220;5.170;2023-04-21T06:31:13;44.88;;;31.25;;
76059;SDS011;64759;52.220;5.170;2023-04-21T06:33:39;42.45;;;32.45;;
76059;SDS011;64759;52.220;5.170;2023-04-21T06:36:05;41.75;;;32.05;;
76059;SDS011;64759;52.220;5.170;2023-04-21T06:38:31;41.38;;;31.52;;
76059;SDS011;64759;52.220;5.170;2023-04-21T06:40:57;37.90;;;30.60;;
76059;SDS011;64759;52.220;5.170;2023-04-21T06:43:22;36.85;;;30.02;;
76059;SDS011;64759;52.220;5.170;2023-04-21T06:45:48;40.55;;;29.27;;
76059;SDS011;64759;52.220;5.170;2023-04-21T06:48:13;41.72;;;30.05;;
76059;SDS011;64759;52.220;5.170;2023-04-21T06:50:39;41.08;;;29.80;;
76059;SDS011;64759;52.220;5.170;2023-04-21T06:53:05;39.22;;;31.10;;
76059;SDS011;64759;52.220;5.170;2023-04-21T06:55:30;40.35;;;30.90;;
76059;SDS011;64759;52.220;5.170;2023-04-21T06:57:56;41.17;;;31.15;;
76059;SDS011;64759;52.220;5.170;2023-04-21T07:00:21;39.63;;;28.95;;
76059;SDS011;64759;52.220;5.170;2023-04-21T07:02:46;40.65;;;30.35;;
76059;SDS011;64759;52.220;5.170;2023-04-21T07:05:13;37.47;;;30.00;;
76059;SDS011;64759;52.220;5.170;2023-04-21T07:07:39;44.92;;;30.73;;
76059;SDS011;64759;52.220;5.170;2023-04-21T07:10:04;41.35;;;31.67;;
76059;SDS011;64759;52.220;5.170;2023-04-21T07:12:31;38.90;;;31.83;;
76059;SDS011;64759;52.220;5.170;2023-04-21T07:14:56;39.50;;;30.13;;
76059;SDS011;64759;52.220;5.170;2023-04-21T07:17:21;40.92;;;30.55;;
76059;SDS011;64759;52.220;5.170;2023-04-21T07:19:47;44.03;;;31.02;;
76059;SDS011;64759;52.220;5.170;2023-04-21T07:22:12;39.72;;;29.42;;
76059;SDS011;64759;52.220;5.170;2023-04-21T07:24:38;34.50;;;27.33;;
76059;SDS011;64759;52.220;5.170;2023-04-21T07:27:03;39.83;;;29.02;;
76059;SDS011;64759;52.220;5.170;2023-04-21T07:29:29;34.47;;;27.45;;
76059;SDS011;64759;52.220;5.170;2023-04-21T07:31:54;34.55;;;26.75;;
76059;SDS011;64759;52.220;5.170;2023-04-21T07:34:20;33.67;;;26.02;;
76059;SDS011;64759;52.220;5.170;2023-04-21T07:36:45;34.88;;;25.58;;
76059;SDS011;64759;52.220;5.170;2023-04-21T07:39:11;34.83;;;28.58;;
76059;SDS011;64759;52.220;5.170;2023-04-21T07:41:36;33.10;;;26.30;;
76059;SDS011;64759;52.220;5.170;2023-04-21T07:44:02;39.70;;;29.70;;
76059;SDS011;64759;52.220;5.170;2023-04-21T07:46:29;38.38;;;30.23;;
76059;SDS011;64759;52.220;5.170;2023-04-21T07:48:56;45.15;;;30.42;;
76059;SDS011;64759;52.220;5.170;2023-04-21T07:51:23;36.65;;;29.45;;
76059;SDS011;64759;52.220;5.170;2023-04-21T07:53:49;36.92;;;30.30;;
76059;SDS011;64759;52.220;5.170;2023-04-21T07:56:15;35.35;;;28.65;;
76059;SDS011;64759;52.220;5.170;2023-04-21T07:58:41;37.45;;;30.25;;
76059;SDS011;64759;52.220;5.170;2023-04-21T08:01:07;34.67;;;29.90;;
76059;SDS011;64759;52.220;5.170;2023-04-21T08:03:32;38.38;;;29.77;;
76059;SDS011;64759;52.220;5.170;2023-04-21T08:05:58;36.00;;;29.20;;
76059;SDS011;64759;52.220;5.170;2023-04-21T08:08:23;33.95;;;27.40;;
76059;SDS011;64759;52.220;5.170;2023-04-21T08:10:49;35.75;;;27.63;;
76059;SDS011;64759;52.220;5.170;2023-04-21T08:13:15;33.80;;;26.35;;
76059;SDS011;64759;52.220;5.170;2023-04-21T08:15:41;29.38;;;25.75;;
76059;SDS011;64759;52.220;5.170;2023-04-21T08:18:07;35.30;;;27.25;;
76059;SDS011;64759;52.220;5.170;2023-04-21T08:20:34;30.15;;;25.85;;
76059;SDS011;64759;52.220;5.170;2023-04-21T08:22:59;36.53;;;26.98;;
76059;SDS011;64759;52.220;5.170;2023-04-21T08:25:25;34.20;;;27.02;;
76059;SDS011;64759;52.220;5.170;2023-04-21T08:27:51;35.40;;;26.67;;
76059;SDS011;64759;52.220;5.170;2023-04-21T08:30:16;31.27;;;25.83;;
76059;SDS011;64759;52.220;5.170;2023-04-21T08:32:42;32.33;;;26.17;;
76059;SDS011;64759;52.220;5.170;2023-04-21T08:35:08;35.55;;;26.60;;
76059;SDS011;64759;52.220;5.170;2023-04-21T08:37:37;35.08;;;27.23;;
76059;SDS011;64759;52.220;5.170;2023-04-21T08:42:30;29.90;;;25.55;;
76059;SDS011;64759;52.220;5.170;2023-04-21T08:44:55;36.63;;;26.75;;
76059;SDS011;64759;52.220;5.170;2023-04-21T08:47:21;33.53;;;26.27;;
76059;SDS011;64759;52.220;5.170;2023-04-21T08:49:49;28.20;;;24.40;;
76059;SDS011;64759;52.220;5.170;2023-04-21T08:52:16;34.05;;;27.08;;
76059;SDS011;64759;52.220;5.170;2023-04-21T08:54:42;34.78;;;26.35;;
76059;SDS011;64759;52.220;5.170;2023-04-21T08:57:08;31.80;;;26.52;;
76059;SDS011;64759;52.220;5.170;2023-04-21T08:59:33;34.03;;;27.08;;
76059;SDS011;64759;52.220;5.170;2023-04-21T09:04:31;36.25;;;26.67;;
76059;SDS011;64759;52.220;5.170;2023-04-21T09:06:57;33.28;;;27.10;;
76059;SDS011;64759;52.220;5.170;2023-04-21T09:09:22;32.90;;;26.85;;
76059;SDS011;64759;52.220;5.170;2023-04-21T09:11:54;33.80;;;25.90;;
76059;SDS011;64759;52.220;5.170;2023-04-21T09:14:21;31.80;;;25.25;;
76059;SDS011;64759;52.220;5.170;2023-04-21T09:16:47;36.50;;;28.05;;
76059;SDS011;64759;52.220;5.170;2023-04-21T09:19:25;31.63;;;26.52;;
76059;SDS011;64759;52.220;5.170;2023-04-21T09:21:54;31.90;;;25.17;;
76059;SDS011;64759;52.220;5.170;2023-04-21T09:24:20;30.02;;;24.40;;
76059;SDS011;64759;52.220;5.170;2023-04-21T09:26:49;31.20;;;24.88;;
76059;SDS011;64759;52.220;5.170;2023-04-21T09:29:16;31.00;;;24.33;;
76059;SDS011;64759;52.220;5.170;2023-04-21T09:31:42;29.90;;;23.63;;
76059;SDS011;64759;52.220;5.170;2023-04-21T09:36:43;29.92;;;24.52;;
76059;SDS011;64759;52.220;5.170;2023-04-21T09:39:10;27.50;;;22.80;;
76059;SDS011;64759;52.220;5.170;2023-04-21T09:41:35;29.00;;;24.00;;
76059;SDS011;64759;52.220;5.170;2023-04-21T09:44:02;30.67;;;25.55;;
76059;SDS011;64759;52.220;5.170;2023-04-21T09:46:32;33.03;;;25.40;;
76059;SDS011;64759;52.220;5.170;2023-04-21T09:48:59;35.40;;;26.42;;
76059;SDS011;64759;52.220;5.170;2023-04-21T09:51:25;29.38;;;24.35;;
76059;SDS011;64759;52.220;5.170;2023-04-21T09:53:52;35.30;;;26.27;;
76059;SDS011;64759;52.220;5.170;2023-04-21T09:56:24;34.20;;;24.83;;
76059;SDS011;64759;52.220;5.170;2023-04-21T09:58:54;32.42;;;26.48;;
76059;SDS011;64759;52.220;5.170;2023-04-21T10:01:23;34.05;;;26.38;;
76059;SDS011;64759;52.220;5.170;2023-04-21T10:03:51;28.63;;;23.40;;
76059;SDS011;64759;52.220;5.170;2023-04-21T10:06:17;33.30;;;25.45;;
76059;SDS011;64759;52.220;5.170;2023-04-21T10:08:43;26.20;;;22.50;;
76059;SDS011;64759;52.220;5.170;2023-04-21T10:11:10;30.88;;;23.80;;
76059;SDS011;64759;52.220;5.170;2023-04-21T10:13:36;28.80;;;23.70;;
76059;SDS011;64759;52.220;5.170;2023-04-21T10:16:03;26.85;;;23.35;;
76059;SDS011;64759;52.220;5.170;2023-04-21T10:18:35;27.83;;;24.20;;
76059;SDS011;64759;52.220;5.170;2023-04-21T10:21:06;32.03;;;24.35;;
76059;SDS011;64759;52.220;5.170;2023-04-21T10:28:57;28.70;;;23.65;;
76059;SDS011;64759;52.220;5.170;2023-04-21T10:31:34;28.52;;;23.63;;
76059;SDS011;64759;52.220;5.170;2023-04-21T10:44:42;31.15;;;22.88;;
76059;SDS011;64759;52.220;5.170;2023-04-21T10:47:09;30.98;;;24.35;;
76059;SDS011;64759;52.220;5.170;2023-04-21T10:49:38;29.13;;;23.40;;
76059;SDS011;64759;52.220;5.170;2023-04-21T10:52:07;29.08;;;22.75;;
76059;SDS011;64759;52.220;5.170;2023-04-21T10:57:16;27.35;;;23.00;;
76059;SDS011;64759;52.220;5.170;2023-04-21T10:59:43;26.88;;;22.17;;
76059;SDS011;64759;52.220;5.170;2023-04-21T11:02:11;32.63;;;24.98;;
76059;SDS011;64759;52.220;5.170;2023-04-21T11:04:39;30.60;;;24.48;;
76059;SDS011;64759;52.220;5.170;2023-04-21T11:07:15;30.75;;;24.77;;
76059;SDS011;64759;52.220;5.170;2023-04-21T11:09:43;28.58;;;24.40;;
76059;SDS011;64759;52.220;5.170;2023-04-21T11:12:11;26.77;;;23.30;;
76059;SDS011;64759;52.220;5.170;2023-04-21T11:14:38;28.80;;;22.38;;
76059;SDS011;64759;52.220;5.170;2023-04-21T11:17:09;27.80;;;22.27;;
76059;SDS011;64759;52.220;5.170;2023-04-21T11:19:36;30.75;;;23.27;;
76059;SDS011;64759;52.220;5.170;2023-04-21T11:22:05;25.73;;;22.50;;
76059;SDS011;64759;52.220;5.170;2023-04-21T11:24:31;29.02;;;22.90;;
76059;SDS011;64759;52.220;5.170;2023-04-21T11:26:57;32.35;;;24.08;;
76059;SDS011;64759;52.220;5.170;2023-04-21T11:29:25;29.08;;;24.25;;
76059;SDS011;64759;52.220;5.170;2023-04-21T11:31:50;26.20;;;22.45;;
76059;SDS011;64759;52.220;5.170;2023-04-21T11:34:20;35.80;;;24.45;;
76059;SDS011;64759;52.220;5.170;2023-04-21T11:36:46;28.63;;;22.45;;
76059;SDS011;64759;52.220;5.170;2023-04-21T11:39:13;29.58;;;23.33;;
76059;SDS011;64759;52.220;5.170;2023-04-21T11:41:42;30.85;;;24.38;;
76059;SDS011;64759;52.220;5.170;2023-04-21T11:44:08;28.08;;;22.05;;
76059;SDS011;64759;52.220;5.170;2023-04-21T11:46:35;27.65;;;22.73;;
76059;SDS011;64759;52.220;5.170;2023-04-21T11:49:05;31.98;;;23.02;;
76059;SDS011;64759;52.220;5.170;2023-04-21T11:51:37;27.92;;;22.65;;
76059;SDS011;64759;52.220;5.170;2023-04-21T11:54:05;30.63;;;24.30;;
76059;SDS011;64759;52.220;5.170;2023-04-21T11:56:35;25.90;;;22.02;;
76059;SDS011;64759;52.220;5.170;2023-04-21T11:59:09;28.00;;;22.42;;
76059;SDS011;64759;52.220;5.170;2023-04-21T12:01:46;28.48;;;20.70;;
76059;SDS011;64759;52.220;5.170;2023-04-21T12:04:18;29.42;;;22.17;;
76059;SDS011;64759;52.220;5.170;2023-04-21T12:06:46;27.45;;;22.13;;
76059;SDS011;64759;52.220;5.170;2023-04-21T12:09:19;30.70;;;21.70;;
76059;SDS011;64759;52.220;5.170;2023-04-21T12:11:48;28.60;;;22.13;;
76059;SDS011;64759;52.220;5.170;2023-04-21T12:14:19;26.85;;;21.00;;
76059;SDS011;64759;52.220;5.170;2023-04-21T12:16:54;25.42;;;21.40;;
76059;SDS011;64759;52.220;5.170;2023-04-21T12:19:40;26.23;;;21.40;;
76059;SDS011;64759;52.220;5.170;2023-04-21T12:22:10;25.00;;;20.48;;
76059;SDS011;64759;52.220;5.170;2023-04-21T12:24:40;22.58;;;19.17;;
76059;SDS011;64759;52.220;5.170;2023-04-21T12:27:06;23.42;;;18.30;;
76059;SDS011;64759;52.220;5.170;2023-04-21T12:29:32;25.63;;;19.95;;
76059;SDS011;64759;52.220;5.170;2023-04-21T12:32:03;23.60;;;19.52;;
76059;SDS011;64759;52.220;5.170;2023-04-21T12:34:31;30.25;;;20.83;;
76059;SDS011;64759;52.220;5.170;2023-04-21T12:36:57;29.17;;;21.45;;
76059;SDS011;64759;52.220;5.170;2023-04-21T12:39:24;28.33;;;22.38;;
76059;SDS011;64759;52.220;5.170;2023-04-21T12:41:49;29.50;;;20.73;;
76059;SDS011;64759;52.220;5.170;2023-04-21T12:44:15;31.02;;;20.55;;
76059;SDS011;64759;52.220;5.170;2023-04-21T12:46:40;28.15;;;21.83;;
76059;SDS011;64759;52.220;5.170;2023-04-21T12:49:07;27.65;;;20.70;;
76059;SDS011;64759;52.220;5.170;2023-04-21T12:51:33;22.77;;;19.13;;
76059;SDS011;64759;52.220;5.170;2023-04-21T12:53:59;26.30;;;19.33;;
76059;SDS011;64759;52.220;5.170;2023-04-21T12:56:25;23.48;;;18.63;;
76059;SDS011;64759;52.220;5.170;2023-04-21T12:58:51;24.08;;;18.42;;
76059;SDS011;64759;52.220;5.170;2023-04-21T13:01:16;22.10;;;18.83;;
76059;SDS011;64759;52.220;5.170;2023-04-21T13:03:42;25.98;;;18.60;;
76059;SDS011;64759;52.220;5.170;2023-04-21T13:06:09;21.05;;;18.17;;
76059;SDS011;64759;52.220;5.170;2023-04-21T13:08:34;24.08;;;18.67;;
76059;SDS011;64759;52.220;5.170;2023-04-21T13:11:00;21.02;;;16.95;;
76059;SDS011;64759;52.220;5.170;2023-04-21T13:13:26;26.00;;;17.85;;
76059;SDS011;64759;52.220;5.170;2023-04-21T13:15:51;20.15;;;16.75;;
76059;SDS011;64759;52.220;5.170;2023-04-21T13:18:18;20.13;;;17.65;;
76059;SDS011;64759;52.220;5.170;2023-04-21T13:20:44;23.73;;;18.48;;
76059;SDS011;64759;52.220;5.170;2023-04-21T13:23:09;26.20;;;19.05;;
76059;SDS011;64759;52.220;5.170;2023-04-21T13:25:37;23.08;;;17.88;;
76059;SDS011;64759;52.220;5.170;2023-04-21T13:28:03;25.00;;;18.95;;
76059;SDS011;64759;52.220;5.170;2023-04-21T13:30:29;26.52;;;18.70;;
76059;SDS011;64759;52.220;5.170;2023-04-21T13:32:55;25.08;;;17.88;;
76059;SDS011;64759;52.220;5.170;2023-04-21T13:35:20;27.63;;;21.23;;
76059;SDS011;64759;52.220;5.170;2023-04-21T13:37:46;28.40;;;21.88;;
76059;SDS011;64759;52.220;5.170;2023-04-21T13:40:13;30.73;;;22.85;;
76059;SDS011;64759;52.220;5.170;2023-04-21T13:42:41;27.27;;;20.83;;
76059;SDS011;64759;52.220;5.170;2023-04-21T13:45:07;31.50;;;22.60;;
76059;SDS011;64759;52.220;5.170;2023-04-21T13:47:34;29.33;;;22.00;;
76059;SDS011;64759;52.220;5.170;2023-04-21T13:49:59;27.50;;;21.73;;
76059;SDS011;64759;52.220;5.170;2023-04-21T13:52:27;28.70;;;22.25;;
76059;SDS011;64759;52.220;5.170;2023-04-21T13:54:52;33.28;;;23.58;;
76059;SDS011;64759;52.220;5.170;2023-04-21T13:57:19;38.15;;;23.75;;
76059;SDS011;64759;52.220;5.170;2023-04-21T13:59:45;27.50;;;22.63;;
76059;SDS011;64759;52.220;5.170;2023-04-21T14:02:10;36.15;;;22.55;;
76059;SDS011;64759;52.220;5.170;2023-04-21T14:04:36;29.63;;;22.45;;
76059;SDS011;64759;52.220;5.170;2023-04-21T14:07:02;27.95;;;22.33;;
76059;SDS011;64759;52.220;5.170;2023-04-21T14:09:29;26.02;;;21.27;;
76059;SDS011;64759;52.220;5.170;2023-04-21T14:11:55;29.48;;;21.52;;
76059;SDS011;64759;52.220;5.170;2023-04-21T14:14:21;29.90;;;22.10;;
76059;SDS011;64759;52.220;5.170;2023-04-21T14:16:46;27.30;;;20.77;;
76059;SDS011;64759;52.220;5.170;2023-04-21T14:19:15;27.85;;;20.58;;
76059;SDS011;64759;52.220;5.170;2023-04-21T14:21:41;27.98;;;21.20;;
76059;SDS011;64759;52.220;5.170;2023-04-21T14:24:07;29.00;;;20.77;;
76059;SDS011;64759;52.220;5.170;2023-04-21T14:26:33;27.38;;;20.50;;
76059;SDS011;64759;52.220;5.170;2023-04-21T14:28:59;26.23;;;20.38;;
76059;SDS011;64759;52.220;5.170;2023-04-21T14:31:25;29.15;;;20.75;;
76059;SDS011;64759;52.220;5.170;2023-04-21T14:33:51;28.42;;;20.95;;
76059;SDS011;64759;52.220;5.170;2023-04-21T14:36:17;25.50;;;19.27;;
76059;SDS011;64759;52.220;5.170;2023-04-21T14:38:42;27.00;;;20.38;;
76059;SDS011;64759;52.220;5.170;2023-04-21T14:41:08;25.35;;;19.73;;
76059;SDS011;64759;52.220;5.170;2023-04-21T14:43:33;33.35;;;17.83;;